Avenal, California
Current Conditions -  °F | °C
As of 5:56 PM on Friday 28 Nov 2014 (Local Time) from KNLC Reporting Station
Haze Haze  
Wind Chill: 58°   Ceiling: Unl
Heat Index: 58°   Visibility: 5mi
Dew Point: 47°   Wind: 0mph
Humidity: 67%   Direction: NA
Pressure: 29.88"   Gusts: NA
Location:  36°N, 120.13°W
Report Text: KNLC 290156Z 00000KT 5SM HZ CLR 14/08 A2988 RMK AO2 SLP118 RH/66 T01440083 $
Loading
Personal Weather Stations






























Interactive Weather Map New forecast layout! Learn more

10-Day Weather Forecast

Advertisements
Track Severe Weather on mobile